sensor_id;sensor_type;location;lat;lon;timestamp;noise_LAeq;noise_LA_min;noise_LA_max;noise_LA01;noise_LA95
69617;Laerm;58075;52.218;4.640;2022-08-02T00:00:03;36.54;34.51;38.23;;
69617;Laerm;58075;52.218;4.640;2022-08-02T00:00:14;36.15;34.40;38.08;;
69617;Laerm;58075;52.218;4.640;2022-08-02T00:00:25;35.33;32.14;37.67;;
69617;Laerm;58075;52.218;4.640;2022-08-02T00:00:35;33.47;31.87;36.20;;
69617;Laerm;58075;52.218;4.640;2022-08-02T00:00:45;33.68;31.94;35.89;;
69617;Laerm;58075;52.218;4.640;2022-08-02T00:00:56;33.68;32.04;35.58;;
69617;Laerm;58075;52.218;4.640;2022-08-02T00:01:06;33.06;31.31;35.02;;
69617;Laerm;58075;52.218;4.640;2022-08-02T00:01:16;33.27;31.56;35.30;;
69617;Laerm;58075;52.218;4.640;2022-08-02T00:01:27;33.56;31.54;35.54;;
69617;Laerm;58075;52.218;4.640;2022-08-02T00:01:37;34.13;31.37;37.34;;
69617;Laerm;58075;52.218;4.640;2022-08-02T00:01:48;38.92;35.20;41.57;;
69617;Laerm;58075;52.218;4.640;2022-08-02T00:01:58;36.09;34.17;38.80;;
69617;Laerm;58075;52.218;4.640;2022-08-02T00:02:08;40.30;36.29;44.27;;
69617;Laerm;58075;52.218;4.640;2022-08-02T00:02:19;37.64;35.82;40.00;;
69617;Laerm;58075;52.218;4.640;2022-08-02T00:02:29;40.15;35.06;44.98;;
69617;Laerm;58075;52.218;4.640;2022-08-02T00:02:40;35.75;32.89;39.24;;
69617;Laerm;58075;52.218;4.640;2022-08-02T00:02:50;34.01;31.81;36.28;;
69617;Laerm;58075;52.218;4.640;2022-08-02T00:03:01;33.29;31.68;35.76;;
69617;Laerm;58075;52.218;4.640;2022-08-02T00:03:11;33.43;31.57;35.11;;
69617;Laerm;58075;52.218;4.640;2022-08-02T00:03:21;34.04;31.72;36.42;;
69617;Laerm;58075;52.218;4.640;2022-08-02T00:03:32;35.05;32.41;37.81;;
69617;Laerm;58075;52.218;4.640;2022-08-02T00:03:42;36.09;33.16;39.17;;
69617;Laerm;58075;52.218;4.640;2022-08-02T00:03:52;35.42;32.20;39.30;;
69617;Laerm;58075;52.218;4.640;2022-08-02T00:04:03;34.69;32.90;37.51;;
69617;Laerm;58075;52.218;4.640;2022-08-02T00:04:13;34.08;31.68;36.50;;
69617;Laerm;58075;52.218;4.640;2022-08-02T00:04:23;34.20;31.97;35.85;;
69617;Laerm;58075;52.218;4.640;2022-08-02T00:04:34;33.27;30.71;35.77;;
69617;Laerm;58075;52.218;4.640;2022-08-02T00:04:44;33.54;31.38;36.25;;
69617;Laerm;58075;52.218;4.640;2022-08-02T00:04:54;34.53;32.08;36.50;;
69617;Laerm;58075;52.218;4.640;2022-08-02T00:05:05;33.54;31.22;36.15;;
69617;Laerm;58075;52.218;4.640;2022-08-02T00:05:15;33.11;31.47;36.02;;
69617;Laerm;58075;52.218;4.640;2022-08-02T00:05:26;33.97;32.08;37.34;;
69617;Laerm;58075;52.218;4.640;2022-08-02T00:05:36;34.26;32.20;36.69;;
69617;Laerm;58075;52.218;4.640;2022-08-02T00:05:46;33.22;31.10;35.72;;
69617;Laerm;58075;52.218;4.640;2022-08-02T00:05:57;34.05;32.03;36.66;;
69617;Laerm;58075;52.218;4.640;2022-08-02T00:06:07;34.68;32.25;37.88;;
69617;Laerm;58075;52.218;4.640;2022-08-02T00:06:17;35.23;32.90;38.05;;
69617;Laerm;58075;52.218;4.640;2022-08-02T00:06:28;35.62;32.85;38.08;;
69617;Laerm;58075;52.218;4.640;2022-08-02T00:06:38;36.41;33.00;39.08;;
69617;Laerm;58075;52.218;4.640;2022-08-02T00:06:48;38.07;34.45;41.22;;
69617;Laerm;58075;52.218;4.640;2022-08-02T00:06:59;40.89;35.68;44.92;;
69617;Laerm;58075;52.218;4.640;2022-08-02T00:07:09;36.56;33.31;41.41;;
69617;Laerm;58075;52.218;4.640;2022-08-02T00:07:19;35.41;33.02;38.88;;
69617;Laerm;58075;52.218;4.640;2022-08-02T00:07:30;33.61;31.57;36.32;;
69617;Laerm;58075;52.218;4.640;2022-08-02T00:07:40;33.82;31.98;36.93;;
69617;Laerm;58075;52.218;4.640;2022-08-02T00:07:50;33.56;30.38;36.02;;
69617;Laerm;58075;52.218;4.640;2022-08-02T00:08:01;33.86;31.66;36.39;;
69617;Laerm;58075;52.218;4.640;2022-08-02T00:08:11;33.82;32.04;36.79;;
69617;Laerm;58075;52.218;4.640;2022-08-02T00:08:21;34.55;32.02;36.52;;
69617;Laerm;58075;52.218;4.640;2022-08-02T00:08:32;34.32;32.53;36.38;;
69617;Laerm;58075;52.218;4.640;2022-08-02T00:08:42;34.47;32.58;36.40;;
69617;Laerm;58075;52.218;4.640;2022-08-02T00:08:52;33.46;31.60;34.95;;
69617;Laerm;58075;52.218;4.640;2022-08-02T00:09:03;33.73;31.65;35.77;;
69617;Laerm;58075;52.218;4.640;2022-08-02T00:09:14;33.60;31.27;36.57;;
69617;Laerm;58075;52.218;4.640;2022-08-02T00:09:24;40.82;33.47;47.39;;
69617;Laerm;58075;52.218;4.640;2022-08-02T00:09:35;42.83;38.04;46.13;;
69617;Laerm;58075;52.218;4.640;2022-08-02T00:09:45;41.58;36.06;46.18;;
69617;Laerm;58075;52.218;4.640;2022-08-02T00:09:55;38.99;36.31;41.44;;
69617;Laerm;58075;52.218;4.640;2022-08-02T00:10:06;39.90;36.16;43.67;;
69617;Laerm;58075;52.218;4.640;2022-08-02T00:10:17;42.70;36.81;49.35;;
69617;Laerm;58075;52.218;4.640;2022-08-02T00:10:27;37.77;34.23;44.78;;
69617;Laerm;58075;52.218;4.640;2022-08-02T00:10:37;34.94;32.31;38.35;;
69617;Laerm;58075;52.218;4.640;2022-08-02T00:10:48;33.16;31.50;34.63;;
69617;Laerm;58075;52.218;4.640;2022-08-02T00:10:58;32.85;30.75;34.49;;
69617;Laerm;58075;52.218;4.640;2022-08-02T00:11:08;32.83;30.74;34.81;;
69617;Laerm;58075;52.218;4.640;2022-08-02T00:11:19;32.80;31.16;35.38;;
69617;Laerm;58075;52.218;4.640;2022-08-02T00:11:29;33.07;31.30;35.09;;
69617;Laerm;58075;52.218;4.640;2022-08-02T00:11:40;34.15;32.04;38.22;;
69617;Laerm;58075;52.218;4.640;2022-08-02T00:11:50;35.17;33.09;37.50;;
69617;Laerm;58075;52.218;4.640;2022-08-02T00:12:00;37.84;34.56;40.59;;
69617;Laerm;58075;52.218;4.640;2022-08-02T00:12:10;38.05;34.42;41.67;;
69617;Laerm;58075;52.218;4.640;2022-08-02T00:12:21;42.47;34.95;48.72;;
69617;Laerm;58075;52.218;4.640;2022-08-02T00:12:31;39.32;33.92;44.84;;
69617;Laerm;58075;52.218;4.640;2022-08-02T00:12:41;34.48;32.21;37.17;;
69617;Laerm;58075;52.218;4.640;2022-08-02T00:12:52;33.25;31.48;35.04;;
69617;Laerm;58075;52.218;4.640;2022-08-02T00:13:02;33.05;31.04;34.74;;
69617;Laerm;58075;52.218;4.640;2022-08-02T00:13:13;33.13;31.37;35.16;;
69617;Laerm;58075;52.218;4.640;2022-08-02T00:13:23;33.72;31.69;37.64;;
69617;Laerm;58075;52.218;4.640;2022-08-02T00:13:33;33.58;31.70;36.11;;
69617;Laerm;58075;52.218;4.640;2022-08-02T00:13:44;34.52;32.00;37.89;;
69617;Laerm;58075;52.218;4.640;2022-08-02T00:13:54;36.87;32.05;42.96;;
69617;Laerm;58075;52.218;4.640;2022-08-02T00:14:04;33.68;31.35;39.19;;
69617;Laerm;58075;52.218;4.640;2022-08-02T00:14:15;34.52;31.93;37.28;;
69617;Laerm;58075;52.218;4.640;2022-08-02T00:14:25;32.54;30.79;34.01;;
69617;Laerm;58075;52.218;4.640;2022-08-02T00:14:36;32.47;30.80;34.21;;
69617;Laerm;58075;52.218;4.640;2022-08-02T00:14:46;32.97;31.64;35.37;;
69617;Laerm;58075;52.218;4.640;2022-08-02T00:14:56;32.50;30.74;35.84;;
69617;Laerm;58075;52.218;4.640;2022-08-02T00:15:07;32.34;30.40;35.34;;
69617;Laerm;58075;52.218;4.640;2022-08-02T00:15:18;32.75;31.25;34.36;;
69617;Laerm;58075;52.218;4.640;2022-08-02T00:15:28;34.04;32.18;36.20;;
69617;Laerm;58075;52.218;4.640;2022-08-02T00:15:38;34.08;32.08;36.01;;
69617;Laerm;58075;52.218;4.640;2022-08-02T00:15:48;34.08;32.41;36.35;;
69617;Laerm;58075;52.218;4.640;2022-08-02T00:15:59;34.14;32.18;35.88;;
69617;Laerm;58075;52.218;4.640;2022-08-02T00:16:09;33.24;31.62;38.89;;
69617;Laerm;58075;52.218;4.640;2022-08-02T00:16:20;33.57;31.62;35.88;;
69617;Laerm;58075;52.218;4.640;2022-08-02T00:16:30;32.91;30.56;35.29;;
69617;Laerm;58075;52.218;4.640;2022-08-02T00:16:40;32.92;30.87;35.09;;
69617;Laerm;58075;52.218;4.640;2022-08-02T00:16:51;32.33;30.77;33.74;;
69617;Laerm;58075;52.218;4.640;2022-08-02T00:17:01;33.42;31.39;35.72;;
69617;Laerm;58075;52.218;4.640;2022-08-02T00:17:11;33.38;31.88;35.40;;
69617;Laerm;58075;52.218;4.640;2022-08-02T00:17:21;33.99;32.31;36.55;;
69617;Laerm;58075;52.218;4.640;2022-08-02T00:17:32;35.36;32.32;43.20;;
69617;Laerm;58075;52.218;4.640;2022-08-02T00:17:43;33.71;32.02;37.07;;
69617;Laerm;58075;52.218;4.640;2022-08-02T00:17:53;33.40;31.24;35.63;;
69617;Laerm;58075;52.218;4.640;2022-08-02T00:18:03;33.28;31.24;35.02;;
69617;Laerm;58075;52.218;4.640;2022-08-02T00:18:14;32.40;31.02;33.87;;
69617;Laerm;58075;52.218;4.640;2022-08-02T00:18:24;32.12;30.33;37.48;;
69617;Laerm;58075;52.218;4.640;2022-08-02T00:18:34;32.52;30.65;42.13;;
69617;Laerm;58075;52.218;4.640;2022-08-02T00:18:44;32.61;30.98;34.50;;
69617;Laerm;58075;52.218;4.640;2022-08-02T00:18:55;32.92;31.09;35.37;;
69617;Laerm;58075;52.218;4.640;2022-08-02T00:19:05;32.97;30.46;35.04;;
69617;Laerm;58075;52.218;4.640;2022-08-02T00:19:15;33.58;31.58;37.29;;
69617;Laerm;58075;52.218;4.640;2022-08-02T00:19:26;32.98;30.90;37.24;;
69617;Laerm;58075;52.218;4.640;2022-08-02T00:19:36;32.81;30.96;34.64;;
69617;Laerm;58075;52.218;4.640;2022-08-02T00:19:46;36.09;31.79;39.88;;
69617;Laerm;58075;52.218;4.640;2022-08-02T00:19:57;39.48;35.77;43.42;;
69617;Laerm;58075;52.218;4.640;2022-08-02T00:20:07;38.48;33.03;42.78;;
69617;Laerm;58075;52.218;4.640;2022-08-02T00:20:18;33.36;31.01;37.04;;
69617;Laerm;58075;52.218;4.640;2022-08-02T00:20:28;33.21;31.34;37.07;;
69617;Laerm;58075;52.218;4.640;2022-08-02T00:20:38;32.80;30.93;35.00;;
69617;Laerm;58075;52.218;4.640;2022-08-02T00:20:49;33.63;31.71;36.45;;
69617;Laerm;58075;52.218;4.640;2022-08-02T00:20:59;33.59;31.52;35.98;;
69617;Laerm;58075;52.218;4.640;2022-08-02T00:21:09;33.34;31.18;35.86;;
69617;Laerm;58075;52.218;4.640;2022-08-02T00:21:20;32.50;31.07;34.22;;
69617;Laerm;58075;52.218;4.640;2022-08-02T00:21:30;33.67;31.81;35.49;;
69617;Laerm;58075;52.218;4.640;2022-08-02T00:21:40;33.44;31.21;35.83;;
69617;Laerm;58075;52.218;4.640;2022-08-02T00:21:51;32.69;30.93;40.72;;
69617;Laerm;58075;52.218;4.640;2022-08-02T00:22:01;32.29;30.38;33.80;;
69617;Laerm;58075;52.218;4.640;2022-08-02T00:22:12;36.91;30.58;48.33;;
69617;Laerm;58075;52.218;4.640;2022-08-02T00:22:22;33.30;31.03;36.04;;
69617;Laerm;58075;52.218;4.640;2022-08-02T00:22:32;32.53;30.68;40.51;;
69617;Laerm;58075;52.218;4.640;2022-08-02T00:22:42;32.06;30.54;33.86;;
69617;Laerm;58075;52.218;4.640;2022-08-02T00:22:53;31.32;29.89;33.07;;
69617;Laerm;58075;52.218;4.640;2022-08-02T00:23:03;31.93;30.48;34.20;;
69617;Laerm;58075;52.218;4.640;2022-08-02T00:23:14;32.16;30.50;34.68;;
69617;Laerm;58075;52.218;4.640;2022-08-02T00:23:24;32.20;30.25;34.05;;
69617;Laerm;58075;52.218;4.640;2022-08-02T00:23:34;32.05;30.62;34.51;;
69617;Laerm;58075;52.218;4.640;2022-08-02T00:23:44;31.70;30.35;32.90;;
69617;Laerm;58075;52.218;4.640;2022-08-02T00:23:55;32.61;30.70;35.12;;
69617;Laerm;58075;52.218;4.640;2022-08-02T00:24:05;32.87;31.11;34.60;;
69617;Laerm;58075;52.218;4.640;2022-08-02T00:24:15;32.29;30.69;34.92;;
69617;Laerm;58075;52.218;4.640;2022-08-02T00:24:26;32.56;30.04;34.70;;
69617;Laerm;58075;52.218;4.640;2022-08-02T00:24:36;32.81;30.99;34.47;;
69617;Laerm;58075;52.218;4.640;2022-08-02T00:24:46;33.17;31.11;34.72;;
69617;Laerm;58075;52.218;4.640;2022-08-02T00:24:57;33.75;32.17;36.64;;
69617;Laerm;58075;52.218;4.640;2022-08-02T00:25:07;33.34;31.05;35.82;;
69617;Laerm;58075;52.218;4.640;2022-08-02T00:25:17;34.11;31.83;36.65;;
69617;Laerm;58075;52.218;4.640;2022-08-02T00:25:28;34.05;31.89;36.22;;
69617;Laerm;58075;52.218;4.640;2022-08-02T00:25:39;33.72;31.37;36.08;;
69617;Laerm;58075;52.218;4.640;2022-08-02T00:25:50;32.88;31.18;35.02;;
69617;Laerm;58075;52.218;4.640;2022-08-02T00:26:00;33.15;31.39;34.93;;
69617;Laerm;58075;52.218;4.640;2022-08-02T00:26:10;32.81;30.95;34.40;;
69617;Laerm;58075;52.218;4.640;2022-08-02T00:26:21;32.27;30.77;33.99;;
69617;Laerm;58075;52.218;4.640;2022-08-02T00:26:31;33.36;31.22;42.23;;
69617;Laerm;58075;52.218;4.640;2022-08-02T00:26:41;34.57;31.27;38.94;;
69617;Laerm;58075;52.218;4.640;2022-08-02T00:26:51;34.65;32.24;40.44;;
69617;Laerm;58075;52.218;4.640;2022-08-02T00:27:02;34.43;32.13;36.85;;
69617;Laerm;58075;52.218;4.640;2022-08-02T00:27:12;33.97;31.98;36.50;;
69617;Laerm;58075;52.218;4.640;2022-08-02T00:27:23;34.90;32.53;38.53;;
69617;Laerm;58075;52.218;4.640;2022-08-02T00:27:33;36.59;31.88;46.31;;
69617;Laerm;58075;52.218;4.640;2022-08-02T00:27:43;34.55;31.42;42.86;;
69617;Laerm;58075;52.218;4.640;2022-08-02T00:27:54;33.72;31.25;39.48;;
69617;Laerm;58075;52.218;4.640;2022-08-02T00:28:04;32.83;31.14;36.17;;
69617;Laerm;58075;52.218;4.640;2022-08-02T00:28:14;32.65;31.10;34.15;;
69617;Laerm;58075;52.218;4.640;2022-08-02T00:28:25;33.64;31.98;35.44;;
69617;Laerm;58075;52.218;4.640;2022-08-02T00:28:35;33.56;30.93;36.63;;
69617;Laerm;58075;52.218;4.640;2022-08-02T00:28:45;32.72;31.11;35.37;;
69617;Laerm;58075;52.218;4.640;2022-08-02T00:28:56;32.30;30.79;34.44;;
69617;Laerm;58075;52.218;4.640;2022-08-02T00:29:06;32.10;30.53;35.29;;
69617;Laerm;58075;52.218;4.640;2022-08-02T00:29:17;31.97;30.33;33.29;;
69617;Laerm;58075;52.218;4.640;2022-08-02T00:29:27;32.90;30.54;38.42;;
69617;Laerm;58075;52.218;4.640;2022-08-02T00:29:37;32.18;30.18;34.25;;
69617;Laerm;58075;52.218;4.640;2022-08-02T00:29:49;31.98;30.56;33.48;;
69617;Laerm;58075;52.218;4.640;2022-08-02T00:30:01;32.05;30.50;33.87;;
69617;Laerm;58075;52.218;4.640;2022-08-02T00:30:11;32.29;30.69;34.49;;
69617;Laerm;58075;52.218;4.640;2022-08-02T00:30:21;32.57;30.92;34.22;;
69617;Laerm;58075;52.218;4.640;2022-08-02T00:30:32;32.27;30.21;33.82;;
69617;Laerm;58075;52.218;4.640;2022-08-02T00:30:42;31.87;30.15;37.17;;
69617;Laerm;58075;52.218;4.640;2022-08-02T00:30:52;32.24;30.35;35.37;;
69617;Laerm;58075;52.218;4.640;2022-08-02T00:31:03;32.28;30.49;34.13;;
69617;Laerm;58075;52.218;4.640;2022-08-02T00:31:13;33.19;31.26;35.07;;
69617;Laerm;58075;52.218;4.640;2022-08-02T00:31:23;33.47;31.40;37.61;;
69617;Laerm;58075;52.218;4.640;2022-08-02T00:31:33;34.47;31.95;37.09;;
69617;Laerm;58075;52.218;4.640;2022-08-02T00:31:44;34.13;32.11;36.69;;
69617;Laerm;58075;52.218;4.640;2022-08-02T00:31:54;33.57;31.64;36.07;;
69617;Laerm;58075;52.218;4.640;2022-08-02T00:32:04;33.22;31.43;35.24;;
69617;Laerm;58075;52.218;4.640;2022-08-02T00:32:15;34.52;32.37;38.31;;
69617;Laerm;58075;52.218;4.640;2022-08-02T00:32:25;34.18;31.72;37.33;;
69617;Laerm;58075;52.218;4.640;2022-08-02T00:32:35;34.43;31.42;37.25;;
69617;Laerm;58075;52.218;4.640;2022-08-02T00:32:46;34.80;31.90;37.12;;
69617;Laerm;58075;52.218;4.640;2022-08-02T00:32:56;34.59;32.24;37.18;;
69617;Laerm;58075;52.218;4.640;2022-08-02T00:33:06;33.48;31.64;35.41;;
69617;Laerm;58075;52.218;4.640;2022-08-02T00:33:17;32.98;31.18;35.33;;
69617;Laerm;58075;52.218;4.640;2022-08-02T00:33:28;33.14;31.25;34.96;;
69617;Laerm;58075;52.218;4.640;2022-08-02T00:33:38;34.14;31.73;36.11;;
69617;Laerm;58075;52.218;4.640;2022-08-02T00:33:48;35.07;32.84;38.15;;
69617;Laerm;58075;52.218;4.640;2022-08-02T00:33:59;33.48;31.56;35.27;;
69617;Laerm;58075;52.218;4.640;2022-08-02T00:34:09;34.57;31.69;37.34;;
69617;Laerm;58075;52.218;4.640;2022-08-02T00:34:19;33.76;31.86;35.46;;
69617;Laerm;58075;52.218;4.640;2022-08-02T00:34:30;33.65;31.73;35.29;;
69617;Laerm;58075;52.218;4.640;2022-08-02T00:34:40;33.05;31.27;34.74;;
69617;Laerm;58075;52.218;4.640;2022-08-02T00:34:50;32.92;31.09;34.90;;
69617;Laerm;58075;52.218;4.640;2022-08-02T00:35:01;32.86;31.24;34.61;;
69617;Laerm;58075;52.218;4.640;2022-08-02T00:35:11;33.58;31.99;36.35;;
69617;Laerm;58075;52.218;4.640;2022-08-02T00:35:21;34.93;31.97;39.35;;
69617;Laerm;58075;52.218;4.640;2022-08-02T00:35:33;35.82;32.63;41.00;;
69617;Laerm;58075;52.218;4.640;2022-08-02T00:35:43;43.03;35.62;47.55;;
69617;Laerm;58075;52.218;4.640;2022-08-02T00:35:57;38.38;35.25;42.33;;
69617;Laerm;58075;52.218;4.640;2022-08-02T00:36:07;36.33;33.66;38.87;;
69617;Laerm;58075;52.218;4.640;2022-08-02T00:36:17;36.36;33.44;39.61;;
69617;Laerm;58075;52.218;4.640;2022-08-02T00:36:28;34.53;32.48;36.43;;
69617;Laerm;58075;52.218;4.640;2022-08-02T00:36:38;34.91;31.98;37.64;;
69617;Laerm;58075;52.218;4.640;2022-08-02T00:36:48;35.26;32.78;37.83;;
69617;Laerm;58075;52.218;4.640;2022-08-02T00:36:59;35.09;32.60;40.60;;
69617;Laerm;58075;52.218;4.640;2022-08-02T00:37:09;35.47;32.75;40.07;;
69617;Laerm;58075;52.218;4.640;2022-08-02T00:37:19;37.01;33.50;39.76;;
69617;Laerm;58075;52.218;4.640;2022-08-02T00:37:29;39.99;34.30;45.66;;
69617;Laerm;58075;52.218;4.640;2022-08-02T00:37:40;39.05;31.37;46.82;;
69617;Laerm;58075;52.218;4.640;2022-08-02T00:37:51;32.79;31.03;39.71;;
69617;Laerm;58075;52.218;4.640;2022-08-02T00:38:01;32.92;30.96;34.50;;
69617;Laerm;58075;52.218;4.640;2022-08-02T00:38:11;33.11;30.49;41.31;;
69617;Laerm;58075;52.218;4.640;2022-08-02T00:38:22;33.18;31.26;37.24;;
69617;Laerm;58075;52.218;4.640;2022-08-02T00:38:32;32.52;30.93;34.44;;
69617;Laerm;58075;52.218;4.640;2022-08-02T00:38:43;33.38;31.81;35.61;;
69617;Laerm;58075;52.218;4.640;2022-08-02T00:38:53;33.46;31.76;35.93;;
69617;Laerm;58075;52.218;4.640;2022-08-02T00:39:03;33.62;31.08;35.66;;
69617;Laerm;58075;52.218;4.640;2022-08-02T00:39:14;33.74;31.75;36.10;;
69617;Laerm;58075;52.218;4.640;2022-08-02T00:39:24;33.88;31.65;35.61;;
69617;Laerm;58075;52.218;4.640;2022-08-02T00:39:34;34.37;32.10;37.08;;
69617;Laerm;58075;52.218;4.640;2022-08-02T00:39:45;33.43;31.33;35.58;;
69617;Laerm;58075;52.218;4.640;2022-08-02T00:39:55;34.34;31.97;36.80;;
69617;Laerm;58075;52.218;4.640;2022-08-02T00:40:07;33.72;31.99;36.33;;
69617;Laerm;58075;52.218;4.640;2022-08-02T00:40:20;34.35;31.96;36.72;;
69617;Laerm;58075;52.218;4.640;2022-08-02T00:40:30;36.62;31.06;39.71;;
69617;Laerm;58075;52.218;4.640;2022-08-02T00:40:45;38.44;34.90;43.23;;
69617;Laerm;58075;52.218;4.640;2022-08-02T00:40:55;39.86;33.46;47.76;;
69617;Laerm;58075;52.218;4.640;2022-08-02T00:41:10;34.46;31.91;38.02;;
69617;Laerm;58075;52.218;4.640;2022-08-02T00:41:21;34.34;32.19;38.28;;
69617;Laerm;58075;52.218;4.640;2022-08-02T00:41:31;33.77;31.47;37.07;;
69617;Laerm;58075;52.218;4.640;2022-08-02T00:41:49;34.02;32.09;36.35;;
69617;Laerm;58075;52.218;4.640;2022-08-02T00:42:00;33.81;31.45;36.94;;
69617;Laerm;58075;52.218;4.640;2022-08-02T00:42:12;34.51;31.14;43.67;;
69617;Laerm;58075;52.218;4.640;2022-08-02T00:42:23;33.50;31.36;40.26;;
69617;Laerm;58075;52.218;4.640;2022-08-02T00:42:33;33.21;31.61;35.06;;
69617;Laerm;58075;52.218;4.640;2022-08-02T00:42:43;33.44;31.52;36.77;;
69617;Laerm;58075;52.218;4.640;2022-08-02T00:43:27;33.51;31.45;35.93;;
69617;Laerm;58075;52.218;4.640;2022-08-02T00:43:30;33.02;30.51;35.54;;
69617;Laerm;58075;52.218;4.640;2022-08-02T00:43:41;32.47;30.84;37.18;;
69617;Laerm;58075;52.218;4.640;2022-08-02T00:43:51;33.22;31.10;35.13;;
69617;Laerm;58075;52.218;4.640;2022-08-02T00:44:02;32.48;30.68;34.67;;
69617;Laerm;58075;52.218;4.640;2022-08-02T00:44:12;33.05;30.92;38.00;;
69617;Laerm;58075;52.218;4.640;2022-08-02T00:44:23;33.55;30.75;37.39;;
69617;Laerm;58075;52.218;4.640;2022-08-02T00:44:33;33.04;31.19;35.96;;
69617;Laerm;58075;52.218;4.640;2022-08-02T00:44:43;32.08;29.98;35.13;;
69617;Laerm;58075;52.218;4.640;2022-08-02T00:44:54;32.05;30.35;33.48;;
69617;Laerm;58075;52.218;4.640;2022-08-02T00:45:05;32.68;30.90;34.12;;
69617;Laerm;58075;52.218;4.640;2022-08-02T00:45:15;32.78;31.04;35.12;;
69617;Laerm;58075;52.218;4.640;2022-08-02T00:45:25;32.67;30.63;35.11;;
69617;Laerm;58075;52.218;4.640;2022-08-02T00:45:36;32.42;31.17;33.68;;
69617;Laerm;58075;52.218;4.640;2022-08-02T00:45:47;32.50;30.90;35.21;;
69617;Laerm;58075;52.218;4.640;2022-08-02T00:45:57;32.25;30.90;34.33;;
69617;Laerm;58075;52.218;4.640;2022-08-02T00:46:08;33.44;31.54;36.37;;
69617;Laerm;58075;52.218;4.640;2022-08-02T00:46:18;32.77;30.96;35.28;;
69617;Laerm;58075;52.218;4.640;2022-08-02T00:46:29;33.09;30.79;35.33;;
69617;Laerm;58075;52.218;4.640;2022-08-02T00:46:39;32.13;30.43;34.05;;
69617;Laerm;58075;52.218;4.640;2022-08-02T00:46:49;33.16;30.82;35.21;;
69617;Laerm;58075;52.218;4.640;2022-08-02T00:47:00;33.09;31.05;37.42;;
69617;Laerm;58075;52.218;4.640;2022-08-02T00:47:10;34.06;31.45;40.32;;
69617;Laerm;58075;52.218;4.640;2022-08-02T00:47:21;35.47;32.81;38.24;;
69617;Laerm;58075;52.218;4.640;2022-08-02T00:47:31;33.91;32.08;36.62;;
69617;Laerm;58075;52.218;4.640;2022-08-02T00:47:41;34.14;32.20;36.37;;
69617;Laerm;58075;52.218;4.640;2022-08-02T00:47:51;34.56;32.07;39.57;;
69617;Laerm;58075;52.218;4.640;2022-08-02T00:48:02;34.69;32.59;41.98;;
69617;Laerm;58075;52.218;4.640;2022-08-02T00:48:13;34.67;32.15;41.85;;
69617;Laerm;58075;52.218;4.640;2022-08-02T00:48:23;35.08;32.76;38.40;;
69617;Laerm;58075;52.218;4.640;2022-08-02T00:48:34;35.81;32.90;40.13;;
69617;Laerm;58075;52.218;4.640;2022-08-02T00:48:44;38.45;34.27;43.24;;
69617;Laerm;58075;52.218;4.640;2022-08-02T00:48:55;37.54;32.60;43.73;;
69617;Laerm;58075;52.218;4.640;2022-08-02T00:49:05;32.44;30.54;35.64;;
69617;Laerm;58075;52.218;4.640;2022-08-02T00:49:15;32.55;30.55;34.55;;
69617;Laerm;58075;52.218;4.640;2022-08-02T00:49:26;32.06;30.21;33.65;;
69617;Laerm;58075;52.218;4.640;2022-08-02T00:49:36;33.33;30.48;39.79;;
69617;Laerm;58075;52.218;4.640;2022-08-02T00:49:46;42.78;34.90;49.53;;
69617;Laerm;58075;52.218;4.640;2022-08-02T00:49:57;38.80;35.22;45.55;;
69617;Laerm;58075;52.218;4.640;2022-08-02T00:50:07;37.12;33.39;41.42;;
69617;Laerm;58075;52.218;4.640;2022-08-02T00:50:17;36.33;34.00;40.55;;
69617;Laerm;58075;52.218;4.640;2022-08-02T00:50:28;35.39;33.44;40.48;;
69617;Laerm;58075;52.218;4.640;2022-08-02T00:50:39;34.34;31.88;36.86;;
69617;Laerm;58075;52.218;4.640;2022-08-02T00:50:49;36.76;32.97;40.20;;
69617;Laerm;58075;52.218;4.640;2022-08-02T00:51:00;34.19;32.37;36.40;;
69617;Laerm;58075;52.218;4.640;2022-08-02T00:51:11;33.86;31.76;36.42;;
69617;Laerm;58075;52.218;4.640;2022-08-02T00:51:21;32.79;31.02;36.06;;
69617;Laerm;58075;52.218;4.640;2022-08-02T00:51:31;33.50;31.53;37.20;;
69617;Laerm;58075;52.218;4.640;2022-08-02T00:51:42;33.12;31.25;35.20;;
69617;Laerm;58075;52.218;4.640;2022-08-02T00:51:52;34.16;32.03;40.26;;
69617;Laerm;58075;52.218;4.640;2022-08-02T00:52:03;33.72;31.80;37.27;;
69617;Laerm;58075;52.218;4.640;2022-08-02T00:52:13;33.81;31.88;36.02;;
69617;Laerm;58075;52.218;4.640;2022-08-02T00:52:23;33.32;31.59;36.47;;
69617;Laerm;58075;52.218;4.640;2022-08-02T00:52:34;33.32;31.17;36.39;;
69617;Laerm;58075;52.218;4.640;2022-08-02T00:52:44;33.84;31.57;36.44;;
69617;Laerm;58075;52.218;4.640;2022-08-02T00:52:54;33.49;31.54;38.81;;
69617;Laerm;58075;52.218;4.640;2022-08-02T00:53:05;33.34;30.76;35.39;;
69617;Laerm;58075;52.218;4.640;2022-08-02T00:53:18;33.78;32.14;36.08;;
69617;Laerm;58075;52.218;4.640;2022-08-02T00:53:28;33.57;31.68;35.46;;
69617;Laerm;58075;52.218;4.640;2022-08-02T00:53:39;33.87;31.47;35.84;;
69617;Laerm;58075;52.218;4.640;2022-08-02T00:53:49;34.17;32.00;46.82;;
69617;Laerm;58075;52.218;4.640;2022-08-02T00:53:59;33.72;31.55;36.24;;
69617;Laerm;58075;52.218;4.640;2022-08-02T00:54:10;32.61;30.72;34.57;;
69617;Laerm;58075;52.218;4.640;2022-08-02T00:54:20;33.28;31.24;36.68;;
69617;Laerm;58075;52.218;4.640;2022-08-02T00:54:30;33.56;31.54;42.37;;
69617;Laerm;58075;52.218;4.640;2022-08-02T00:54:41;33.17;31.06;37.72;;
69617;Laerm;58075;52.218;4.640;2022-08-02T00:54:51;34.12;31.47;37.19;;
69617;Laerm;58075;52.218;4.640;2022-08-02T00:55:01;33.97;31.77;38.90;;
69617;Laerm;58075;52.218;4.640;2022-08-02T00:55:12;33.44;31.43;38.26;;
69617;Laerm;58075;52.218;4.640;2022-08-02T00:55:22;32.46;30.90;34.19;;
69617;Laerm;58075;52.218;4.640;2022-08-02T00:55:33;32.78;31.30;34.57;;
69617;Laerm;58075;52.218;4.640;2022-08-02T00:55:43;32.68;30.21;34.97;;
69617;Laerm;58075;52.218;4.640;2022-08-02T00:55:54;33.48;30.93;36.24;;
69617;Laerm;58075;52.218;4.640;2022-08-02T00:56:04;33.33;31.95;35.19;;
69617;Laerm;58075;52.218;4.640;2022-08-02T00:56:14;33.32;31.26;34.71;;
69617;Laerm;58075;52.218;4.640;2022-08-02T00:56:25;33.08;31.24;34.90;;
69617;Laerm;58075;52.218;4.640;2022-08-02T00:56:35;33.90;31.64;36.10;;
69617;Laerm;58075;52.218;4.640;2022-08-02T00:56:45;33.80;31.32;36.70;;
69617;Laerm;58075;52.218;4.640;2022-08-02T00:56:55;34.13;32.16;36.79;;
69617;Laerm;58075;52.218;4.640;2022-08-02T00:57:06;34.20;32.13;36.98;;
69617;Laerm;58075;52.218;4.640;2022-08-02T00:57:16;32.94;31.00;35.20;;
69617;Laerm;58075;52.218;4.640;2022-08-02T00:57:26;33.42;31.06;38.28;;
69617;Laerm;58075;52.218;4.640;2022-08-02T00:57:37;32.54;30.67;35.13;;
69617;Laerm;58075;52.218;4.640;2022-08-02T00:57:47;34.17;31.15;42.20;;
69617;Laerm;58075;52.218;4.640;2022-08-02T00:57:58;36.95;31.30;54.61;;
69617;Laerm;58075;52.218;4.640;2022-08-02T00:58:08;33.22;31.16;40.28;;
69617;Laerm;58075;52.218;4.640;2022-08-02T00:58:18;33.82;31.29;36.20;;
69617;Laerm;58075;52.218;4.640;2022-08-02T00:58:28;35.87;32.43;38.68;;
69617;Laerm;58075;52.218;4.640;2022-08-02T00:58:39;35.28;32.04;39.11;;
69617;Laerm;58075;52.218;4.640;2022-08-02T00:58:49;34.63;31.77;37.81;;
69617;Laerm;58075;52.218;4.640;2022-08-02T00:59:00;33.23;31.25;35.42;;